Thunder radar more information blitzortung!


Löydät sääaseman tiedot myös:

European Weather Network

Finland Weather Exchange

Weather Underground

AWEKAS



Weather Underground säähistoriasivu

Päivittäin yhteenveto Tou 20, 2017 Yksiköt:  Englantilaiset    Metriset   Molemmat
« Edellinen Päivä
Seuraava Päivä »
Päivittäin Viikoittain Kuukausittain Vuosittain Mukautettu
  Korkea: Matala: Keskiarvo:
Lämpötila: TemperatureC °F 4.6 °F 11.6 °F
Kastepiste: DewpointC °F 1.0 °F 6.5 °F
Kosteus: Humidity % 47 % 72 %
Tuulen nopeus: WindSpeedKMH mph 0.0 mph 0 mph
Tuulenpuuska: WindSpeedGustKMH mph - -
Tuuli:- - North
Ilmanpaine: PressurehPa in 1012.8 in -
Sade: 0.0 in    
Historical Graphs
 
 
Taulukkotiedot Tou 20, 2017
Aika Lämpötila Kastepiste Ilmanpaine Tuuli Tuulen nopeus Tuulenpuuska Kosteus Sademäärä (tunneittain)
TemperatureC °F DewpointC °F PressurehPa in Calm     Humidity % HourlyPrecipMM in
00:00 11.9 °F 9.1 °F 1012.8 in Calm     83 % 0.0 in
00:15 11.8 °F 9.0 °F 1012.8 in Calm     83 % 0.0 in
00:30 11.6 °F 8.8 °F 1012.8 in Calm     83 % 0.0 in
00:45 11.4 °F 8.8 °F 1013.1 in Calm     84 % 0.0 in
01:00 11.4 °F 8.8 °F 1013.1 in Calm     84 % 0.0 in
01:15 11.3 °F 8.7 °F 1013.1 in Calm     84 % 0.0 in
01:30 11.0 °F 8.6 °F 1013.1 in Calm     85 % 0.0 in
01:45 10.6 °F 8.3 °F 1013.4 in Calm     86 % 0.0 in
02:00 9.9 °F 7.8 °F 1013.4 in Calm     87 % 0.0 in
02:15 9.4 °F 7.7 °F 1013.4 in Calm     89 % 0.0 in
02:30 9.0 °F 8.1 °F 1013.8 in Calm     94 % 0.0 in
02:45 9.6 °F 8.3 °F 1013.8 in Calm     92 % 0.0 in
03:00 10.2 °F 8.6 °F 1014.1 in Calm     90 % 0.0 in
03:15 10.3 °F 8.5 °F 1014.4 in Calm     89 % 0.0 in
03:30 10.3 °F 8.6 °F 1014.4 in Calm     89 % 0.0 in
03:45 10.3 °F 8.6 °F 1014.8 in Calm     89 % 0.0 in
04:00 10.5 °F 8.9 °F 1014.8 in Calm     90 % 0.0 in
04:15 10.6 °F 8.9 °F 1015.1 in Calm     89 % 0.0 in
04:30 10.3 °F 8.6 °F 1015.1 in Calm     89 % 0.0 in
04:45 10.1 °F 8.5 °F 1015.5 in Calm     90 % 0.0 in
05:00 9.9 °F 8.3 °F 1015.5 in Calm     90 % 0.0 in
05:15 9.6 °F 8.1 °F 1015.5 in Calm     90 % 0.0 in
05:30 9.5 °F 7.8 °F 1015.8 in Calm     89 % 0.0 in
05:45 9.3 °F 7.3 °F 1015.8 in Calm     87 % 0.0 in
06:00 9.3 °F 7.1 °F 1016.1 in Calm     86 % 0.0 in
06:15 9.3 °F 6.9 °F 1016.1 in Calm     85 % 0.0 in
06:30 9.3 °F 6.9 °F 1016.1 in Calm     85 % 0.0 in
06:45 9.4 °F 6.9 °F 1016.5 in Calm     84 % 0.0 in
07:00 9.4 °F 6.6 °F 1016.5 in Calm     83 % 0.0 in
07:15 9.5 °F 6.6 °F 1016.5 in Calm     82 % 0.0 in
07:45 9.2 °F 6.8 °F 1016.8 in Calm     85 % 0.0 in
08:00 9.0 °F 7.0 °F 1017.2 in Calm     87 % 0.0 in
08:15 9.1 °F 7.2 °F 1017.2 in Calm     88 % 0.0 in
08:30 9.3 °F 7.4 °F 1017.5 in Calm     88 % 0.0 in
08:45 9.4 °F 7.2 °F 1017.5 in Calm     86 % 0.0 in
09:00 9.5 °F 7.3 °F 1017.5 in Calm     86 % 0.0 in
09:15 9.7 °F 7.3 °F 1017.5 in Calm     85 % 0.0 in
09:30 9.9 °F 7.5 °F 1017.5 in Calm     85 % 0.0 in
09:45 10.2 °F 7.6 °F 1017.8 in Calm     84 % 0.0 in
10:00 10.4 °F 7.9 °F 1018.2 in Calm     84 % 0.0 in
10:15 10.6 °F 7.8 °F 1017.8 in Calm     83 % 0.0 in
10:30 10.9 °F 7.8 °F 1018.2 in Calm     81 % 0.0 in
10:45 11.8 °F 8.3 °F 1018.2 in Calm     79 % 0.0 in
11:00 11.6 °F 7.9 °F 1018.5 in Calm     78 % 0.0 in
11:15 12.2 °F 8.5 °F 1018.5 in Calm     78 % 0.0 in
11:30 12.9 °F 8.0 °F 1018.5 in Calm     72 % 0.0 in
11:45 13.4 °F 8.8 °F 1018.5 in Calm     74 % 0.0 in
12:00 12.9 °F 8.2 °F 1018.8 in Calm     73 % 0.0 in
12:15 13.2 °F 8.0 °F 1018.8 in Calm     71 % 0.0 in
12:30 13.5 °F 8.5 °F 1018.5 in Calm     72 % 0.0 in
12:45 14.6 °F 7.8 °F 1018.5 in Calm     64 % 0.0 in
13:00 14.7 °F 8.0 °F 1018.5 in Calm     64 % 0.0 in
13:15 14.3 °F 7.6 °F 1018.5 in Calm     64 % 0.0 in
13:30 14.3 °F 7.6 °F 1018.5 in Calm     64 % 0.0 in
13:45 14.5 °F 7.8 °F 1018.5 in Calm     64 % 0.0 in
14:00 15.3 °F 7.8 °F 1018.5 in Calm     61 % 0.0 in
14:15 15.3 °F 7.4 °F 1018.5 in Calm     59 % 0.0 in
14:30 15.5 °F 7.8 °F 1018.5 in Calm     60 % 0.0 in
14:45 15.4 °F 7.9 °F 1018.5 in Calm     61 % 0.0 in
15:00 15.5 °F 7.3 °F 1018.5 in Calm     58 % 0.0 in
15:15 15.3 °F 7.8 °F 1018.5 in Calm     61 % 0.0 in
15:30 15.7 °F 7.7 °F 1018.5 in Calm     59 % 0.0 in
15:45 16.1 °F 7.3 °F 1018.5 in Calm     56 % 0.0 in
16:00 16.2 °F 7.4 °F 1018.5 in Calm     56 % 0.0 in
16:15 16.4 °F 7.6 °F 1018.5 in Calm     56 % 0.0 in
16:30 16.7 °F 7.1 °F 1018.5 in Calm     53 % 0.0 in
16:45 16.7 °F 7.4 °F 1018.5 in Calm     54 % 0.0 in
17:00 16.3 °F 5.9 °F 1018.5 in Calm     50 % 0.0 in
17:15 16.4 °F 5.9 °F 1018.5 in Calm     50 % 0.0 in
17:30 16.3 °F 5.2 °F 1018.5 in Calm     48 % 0.0 in
17:45 16.2 °F 4.8 °F 1018.5 in Calm     47 % 0.0 in
18:00 15.9 °F 5.2 °F 1018.5 in Calm     49 % 0.0 in
18:15 15.7 °F 5.0 °F 1018.5 in Calm     49 % 0.0 in
18:30 15.3 °F 4.9 °F 1018.5 in Calm     50 % 0.0 in
18:45 14.9 °F 4.0 °F 1018.5 in Calm     48 % 0.0 in
19:00 14.6 °F 4.3 °F 1018.5 in Calm     50 % 0.0 in
19:15 14.2 °F 3.9 °F 1018.5 in Calm     50 % 0.0 in
19:30 13.8 °F 3.5 °F 1018.5 in Calm     50 % 0.0 in
19:45 13.4 °F 3.2 °F 1018.5 in Calm     50 % 0.0 in
20:00 13.0 °F 2.8 °F 1018.8 in Calm     50 % 0.0 in
20:15 12.5 °F 2.9 °F 1018.8 in Calm     52 % 0.0 in
20:30 11.9 °F 3.2 °F 1018.5 in Calm     55 % 0.0 in
20:45 11.4 °F 3.2 °F 1018.8 in Calm     57 % 0.0 in
21:15 10.4 °F 2.8 °F 1018.5 in Calm     59 % 0.0 in
21:30 10.1 °F 2.4 °F 1018.8 in Calm     59 % 0.0 in
21:45 9.8 °F 2.6 °F 1018.8 in Calm     61 % 0.0 in
22:00 9.2 °F 2.3 °F 1018.8 in Calm     62 % 0.0 in
22:15 8.7 °F 2.2 °F 1018.8 in Calm     64 % 0.0 in
22:30 8.1 °F 2.1 °F 1019.2 in Calm     66 % 0.0 in
22:45 7.2 °F 2.1 °F 1018.8 in Calm     70 % 0.0 in
23:00 6.3 °F 1.6 °F 1019.2 in Calm     72 % 0.0 in
23:15 5.5 °F 1.6 °F 1018.8 in Calm     76 % 0.0 in
23:30 5.0 °F 1.3 °F 1019.2 in Calm     77 % 0.0 in
23:45 4.6 °F 1.0 °F 1019.2 in Calm     78 % 0.0 in
Esan sääasema
Terveisin Weather Underground - 2.75 mb

Alkuperäinen skripti  Jim McMurry - jmcmurry@mwt.net Sovitettu myös templatelle  Wim van der Kuil - Leuven-Template.eu

Laitteet joita käytämme:

Sääasema
Davis VP2

Sääasemaohjelma
Cumulus

Sääaseman tietokone
Asus EeePC

Palveluntarjoaja
Suncomet

Davis VP2

Cumulus

Asus EeePC

Suncomet